Time;durP1;ratioP1;P1;durP2;ratioP2;P2;SDS_P1;SDS_P2;PMS_P1;PMS_P2;Temp;Humidity;BMP_temperature;BMP_pressure;BME280_temperature;BME280_humidity;BME280_pressure;Samples;Min_cycle;Max_cycle;Signal;HPM_P1;HPM_P2
2021/05/13 00:01:09;;;;;;;27.02;17.27;;;11.90;75.80;;;;;;5138304;27;20020;-39
2021/05/13 00:03:35;;;;;;;26.63;15.52;;;11.90;75.90;;;;;;5138658;27;20031;-39
2021/05/13 00:06:02;;;;;;;36.78;20.10;;;11.90;76.00;;;;;;5138064;27;20476;-39
2021/05/13 00:08:28;;;;;;;38.38;21.27;;;11.90;76.10;;;;;;5138108;27;20049;-39
2021/05/13 00:11:02;;;;;;;36.40;20.27;;;11.90;76.00;;;;;;5138085;27;20023;-39
2021/05/13 00:13:30;;;;;;;38.10;21.58;;;11.90;75.80;;;;;;5138426;27;20110;-40
2021/05/13 00:15:56;;;;;;;41.95;23.85;;;11.90;75.80;;;;;;5137916;27;20020;-39
2021/05/13 00:18:22;;;;;;;35.85;22.25;;;11.90;75.90;;;;;;5138234;27;20037;-39
2021/05/13 00:20:48;;;;;;;35.20;21.05;;;11.90;75.90;;;;;;5137827;27;20322;-40
2021/05/13 00:23:13;;;;;;;37.72;23.30;;;11.90;75.90;;;;;;5137263;27;20038;-40
2021/05/13 00:25:40;;;;;;;38.85;22.27;;;11.90;75.90;;;;;;5137789;27;20072;-39
2021/05/13 00:28:06;;;;;;;36.00;21.85;;;11.90;75.90;;;;;;5138024;27;20144;-39
2021/05/13 00:30:31;;;;;;;43.00;24.92;;;11.90;76.00;;;;;;5137710;27;20431;-39
2021/05/13 00:32:57;;;;;;;36.08;21.13;;;11.90;76.00;;;;;;5137726;27;20372;-39
2021/05/13 00:35:23;;;;;;;36.75;23.73;;;11.90;75.90;;;;;;5137469;27;20050;-39
2021/05/13 00:37:48;;;;;;;36.67;22.20;;;11.90;75.90;;;;;;5137169;27;20059;-39
2021/05/13 00:40:16;;;;;;;40.15;23.98;;;11.90;75.80;;;;;;5137484;27;20055;-39
2021/05/13 00:42:42;;;;;;;34.55;21.75;;;11.90;75.80;;;;;;5137417;27;20045;-39
2021/05/13 00:45:10;;;;;;;39.53;23.52;;;11.80;75.50;;;;;;5137304;27;20333;-39
2021/05/13 00:47:37;;;;;;;37.97;22.58;;;11.80;75.60;;;;;;5137648;27;20078;-39
2021/05/13 00:50:04;;;;;;;42.22;24.65;;;11.80;75.70;;;;;;5137432;27;20089;-39
2021/05/13 00:52:32;;;;;;;34.50;21.75;;;11.80;75.80;;;;;;5137518;27;20399;-40
2021/05/13 00:54:58;;;;;;;41.53;23.88;;;11.70;75.80;;;;;;5137211;27;20098;-39
2021/05/13 00:57:26;;;;;;;39.33;25.67;;;11.70;75.80;;;;;;5137273;27;20426;-39
2021/05/13 00:59:55;;;;;;;35.13;23.67;;;11.70;75.80;;;;;;5137187;27;20031;-40
2021/05/13 01:02:21;;;;;;;38.63;21.67;;;11.60;75.70;;;;;;5137006;27;20035;-39
2021/05/13 01:04:47;;;;;;;39.33;22.30;;;11.50;75.80;;;;;;5136833;27;20030;-39
2021/05/13 01:07:12;;;;;;;38.60;23.50;;;11.50;76.00;;;;;;5137080;27;20106;-39
2021/05/13 01:09:38;;;;;;;31.88;20.13;;;11.50;76.20;;;;;;5137061;27;20050;-40
2021/05/13 01:12:14;;;;;;;36.97;23.80;;;11.40;76.20;;;;;;5136596;27;20185;-39
2021/05/13 01:14:50;;;;;;;34.40;21.98;;;11.40;76.40;;;;;;5137204;27;20023;-40
2021/05/13 01:17:21;;;;;;;29.02;19.60;;;11.30;76.50;;;;;;5136812;27;20377;-39
2021/05/13 01:19:50;;;;;;;27.30;19.35;;;11.30;76.60;;;;;;5136814;27;20416;-40
2021/05/13 01:22:17;;;;;;;31.73;19.02;;;11.20;76.70;;;;;;5136537;27;20071;-39
2021/05/13 01:24:44;;;;;;;29.98;18.17;;;11.20;77.00;;;;;;5137018;27;20109;-39
2021/05/13 01:27:10;;;;;;;27.27;17.17;;;11.20;76.90;;;;;;5136270;27;20027;-39
2021/05/13 01:29:36;;;;;;;26.75;18.25;;;11.20;77.00;;;;;;5136668;27;20024;-40
2021/05/13 01:32:02;;;;;;;24.58;16.65;;;11.10;77.00;;;;;;5136722;27;20080;-40
2021/05/13 01:34:28;;;;;;;26.65;16.83;;;11.10;77.10;;;;;;5136418;27;20295;-39
2021/05/13 01:36:54;;;;;;;25.58;16.88;;;11.10;77.10;;;;;;5136085;27;20055;-39
2021/05/13 01:39:20;;;;;;;27.20;17.70;;;11.10;77.20;;;;;;5136708;27;20112;-40
2021/05/13 01:41:46;;;;;;;27.08;19.00;;;11.10;77.20;;;;;;5136392;28;20123;-39
2021/05/13 01:44:12;;;;;;;28.15;17.65;;;11.10;77.20;;;;;;5136675;28;20368;-40
2021/05/13 01:46:38;;;;;;;24.65;17.40;;;11.10;77.20;;;;;;5136436;28;20303;-39
2021/05/13 01:49:06;;;;;;;25.98;17.58;;;11.00;77.30;;;;;;5136618;28;20038;-39
2021/05/13 01:51:32;;;;;;;22.70;16.77;;;11.00;78.00;;;;;;5136699;28;20027;-40
2021/05/13 01:53:58;;;;;;;26.98;18.88;;;11.00;77.50;;;;;;5136646;28;20034;-40
2021/05/13 01:56:24;;;;;;;26.35;17.17;;;11.00;77.60;;;;;;5117969;28;20035;-40
2021/05/13 01:58:50;;;;;;;26.05;17.40;;;11.00;77.70;;;;;;5136567;28;20364;-39
2021/05/13 02:01:16;;;;;;;25.40;17.23;;;11.00;77.70;;;;;;5136455;28;20083;-39
2021/05/13 02:03:44;;;;;;;26.25;17.10;;;11.00;77.60;;;;;;5136808;28;20031;-39
2021/05/13 02:06:11;;;;;;;23.17;16.45;;;11.00;77.50;;;;;;5136353;28;20070;-39
2021/05/13 02:08:37;;;;;;;27.05;15.10;;;11.00;77.60;;;;;;5136638;28;20027;-40
2021/05/13 02:11:04;;;;;;;21.60;14.82;;;11.00;77.60;;;;;;5135829;28;20046;-39
2021/05/13 02:13:30;;;;;;;26.10;16.38;;;11.00;77.60;;;;;;5136361;28;20407;-39
2021/05/13 02:15:55;;;;;;;21.15;15.60;;;10.90;77.50;;;;;;5136215;28;20039;-39
2021/05/13 02:18:21;;;;;;;23.92;15.65;;;11.00;77.60;;;;;;5136247;28;20035;-39
2021/05/13 02:20:48;;;;;;;25.25;16.77;;;11.00;77.50;;;;;;5136233;28;20028;-39
2021/05/13 02:23:14;;;;;;;27.02;17.05;;;11.00;77.50;;;;;;5136470;28;20325;-39
2021/05/13 02:25:43;;;;;;;24.17;15.00;;;11.00;77.30;;;;;;5136187;28;20031;-40
2021/05/13 02:28:09;;;;;;;23.60;16.38;;;11.00;77.30;;;;;;5136239;28;20032;-39
2021/05/13 02:30:34;;;;;;;26.73;17.13;;;11.00;77.30;;;;;;5136087;28;20031;-39
2021/05/13 02:33:00;;;;;;;25.60;15.30;;;11.00;77.40;;;;;;5136331;28;20054;-39
2021/05/13 02:35:26;;;;;;;24.50;15.85;;;11.00;77.30;;;;;;5136063;28;20358;-40
2021/05/13 02:37:51;;;;;;;23.45;15.57;;;10.90;77.30;;;;;;5135644;28;20052;-40
2021/05/13 02:40:18;;;;;;;26.05;16.35;;;10.90;77.20;;;;;;5135944;28;20047;-39
2021/05/13 02:42:45;;;;;;;24.30;15.32;;;10.90;77.00;;;;;;5136048;28;20261;-39
2021/05/13 02:45:12;;;;;;;26.70;16.58;;;10.90;76.70;;;;;;5136070;27;20081;-39
2021/05/13 02:47:38;;;;;;;25.60;16.95;;;10.80;76.30;;;;;;5140112;27;20073;-39
2021/05/13 02:50:05;;;;;;;27.48;17.42;;;10.80;76.30;;;;;;5139745;27;20449;-39
2021/05/13 02:52:31;;;;;;;27.17;18.08;;;10.70;76.60;;;;;;5139492;27;20031;-39
2021/05/13 02:54:57;;;;;;;25.95;16.20;;;10.60;76.70;;;;;;5139540;27;20023;-40
2021/05/13 02:57:23;;;;;;;25.48;16.58;;;10.60;76.80;;;;;;5139346;27;20034;-39
2021/05/13 02:59:52;;;;;;;24.60;16.23;;;10.50;77.10;;;;;;5139715;27;20031;-39
2021/05/13 03:02:18;;;;;;;24.30;15.80;;;10.50;77.30;;;;;;5139265;27;20031;-39
2021/05/13 03:04:44;;;;;;;25.35;14.82;;;10.50;77.40;;;;;;5139413;27;20031;-39
2021/05/13 03:07:11;;;;;;;24.58;15.63;;;10.50;77.50;;;;;;5138959;27;20031;-39
2021/05/13 03:09:54;;;;;;;20.20;14.07;;;10.50;77.60;;;;;;5139580;27;20031;-39
2021/05/13 03:12:20;;;;;;;20.83;14.18;;;10.50;78.20;;;;;;5139031;27;20102;-39
2021/05/13 03:14:46;;;;;;;25.33;14.95;;;10.50;77.70;;;;;;5139344;27;20070;-39
2021/05/13 03:17:12;;;;;;;19.52;13.27;;;10.50;77.70;;;;;;5139214;27;20042;-39
2021/05/13 03:19:44;;;;;;;19.05;13.18;;;10.50;77.70;;;;;;5139420;27;20053;-40
2021/05/13 03:22:14;;;;;;;19.67;12.13;;;10.40;77.70;;;;;;5139062;27;20039;-39
2021/05/13 03:24:52;;;;;;;20.05;13.48;;;10.40;77.90;;;;;;5139090;27;20039;-39
2021/05/13 03:29:50;;;;;;;22.60;13.32;;;10.40;78.30;;;;;;5138973;27;20062;-39
2021/05/13 03:32:16;;;;;;;17.30;12.00;;;10.40;78.40;;;;;;5138719;27;20319;-39
2021/05/13 03:34:42;;;;;;;18.70;13.13;;;10.30;78.30;;;;;;5138781;27;20024;-39
2021/05/13 03:37:07;;;;;;;16.20;12.02;;;10.30;78.30;;;;;;5138159;27;20054;-39
2021/05/13 03:39:33;;;;;;;18.75;12.02;;;10.30;78.40;;;;;;5138758;27;20047;-39
2021/05/13 03:41:58;;;;;;;16.50;11.65;;;10.30;78.60;;;;;;5138356;27;20034;-39
2021/05/13 03:44:24;;;;;;;18.90;11.65;;;10.30;78.80;;;;;;5138623;27;20284;-39
2021/05/13 03:46:50;;;;;;;15.18;11.40;;;10.40;79.00;;;;;;5138131;27;20016;-39
2021/05/13 03:49:15;;;;;;;20.30;11.55;;;10.40;79.20;;;;;;5138666;27;20034;-39
2021/05/13 03:51:41;;;;;;;16.23;12.02;;;10.40;79.20;;;;;;5138001;27;20033;-39
2021/05/13 03:54:06;;;;;;;17.65;11.88;;;10.40;79.10;;;;;;5138675;27;20025;-39
2021/05/13 03:56:32;;;;;;;15.60;11.65;;;10.50;79.10;;;;;;5138107;27;20288;-39
2021/05/13 03:59:02;;;;;;;21.23;12.05;;;10.50;79.20;;;;;;5138653;27;20026;-39
2021/05/13 04:01:45;;;;;;;15.77;11.35;;;10.60;79.40;;;;;;5121234;27;20035;-39
2021/05/13 04:04:11;;;;;;;16.17;11.38;;;10.60;79.30;;;;;;5117767;28;20035;-39
2021/05/13 04:06:37;;;;;;;26.92;12.55;;;10.70;79.30;;;;;;5117191;28;20027;-39
2021/05/13 04:09:08;;;;;;;18.88;11.70;;;10.70;79.20;;;;;;5117422;28;20024;-39
2021/05/13 04:11:35;;;;;;;14.63;10.57;;;10.70;79.20;;;;;;5117227;28;20028;-39
2021/05/13 04:14:01;;;;;;;16.25;10.73;;;10.80;79.10;;;;;;5117067;28;20449;-39
2021/05/13 04:16:28;;;;;;;14.93;10.60;;;10.90;79.20;;;;;;5117073;28;20114;-41
2021/05/13 04:18:54;;;;;;;24.98;10.93;;;10.90;79.10;;;;;;5117101;28;20027;-39
2021/05/13 04:21:20;;;;;;;21.02;12.38;;;11.00;79.10;;;;;;5116889;28;20060;-39
2021/05/13 04:23:45;;;;;;;21.48;9.77;;;11.10;78.90;;;;;;5117336;28;20032;-39
2021/05/13 04:26:11;;;;;;;18.65;10.15;;;11.20;78.60;;;;;;5116762;28;20038;-39
2021/05/13 04:28:37;;;;;;;15.68;9.50;;;11.20;78.10;;;;;;5117344;28;20529;-39
2021/05/13 04:31:02;;;;;;;13.35;9.43;;;11.20;77.60;;;;;;5116604;28;20035;-39
2021/05/13 04:33:30;;;;;;;14.68;9.70;;;11.20;77.40;;;;;;5116938;28;20442;-39
2021/05/13 04:35:56;;;;;;;16.35;9.13;;;11.20;77.40;;;;;;5116501;28;20431;-39
2021/05/13 04:38:21;;;;;;;13.95;10.02;;;11.20;77.50;;;;;;5116626;28;20138;-39
2021/05/13 04:40:49;;;;;;;11.93;8.02;;;11.30;78.00;;;;;;5116615;28;20050;-39
2021/05/13 04:43:15;;;;;;;28.70;11.55;;;11.30;77.80;;;;;;5098713;28;20026;-40
2021/05/13 04:45:40;;;;;;;22.58;9.32;;;11.40;77.50;;;;;;5116283;28;20039;-39
2021/05/13 04:48:10;;;;;;;16.60;9.25;;;11.50;77.60;;;;;;5123366;27;20205;-40
2021/05/13 04:50:36;;;;;;;11.87;7.97;;;11.50;77.50;;;;;;5125690;27;20186;-40
2021/05/13 04:53:07;;;;;;;12.95;8.23;;;11.60;77.10;;;;;;5126964;27;20450;-39
2021/05/13 04:55:33;;;;;;;13.95;8.50;;;11.70;76.80;;;;;;5126151;27;20057;-40
2021/05/13 04:57:59;;;;;;;14.55;8.45;;;11.70;76.30;;;;;;5125063;27;20015;-39
2021/05/13 05:00:24;;;;;;;14.63;8.50;;;11.80;76.40;;;;;;5125185;27;20312;-39
2021/05/13 05:02:50;;;;;;;15.10;8.18;;;11.80;76.50;;;;;;5126540;27;20019;-39
2021/05/13 05:05:16;;;;;;;14.52;8.43;;;11.90;76.30;;;;;;5126021;27;20361;-39
2021/05/13 05:07:41;;;;;;;12.80;7.68;;;12.00;75.80;;;;;;5125311;27;20065;-40
2021/05/13 05:10:08;;;;;;;13.18;8.30;;;12.00;75.50;;;;;;5126167;27;20434;-39
2021/05/13 05:12:33;;;;;;;16.13;8.73;;;12.10;75.30;;;;;;5126062;27;20442;-39
2021/05/13 05:14:59;;;;;;;13.98;9.40;;;12.20;75.20;;;;;;5124788;27;20024;-40
2021/05/13 05:17:25;;;;;;;12.80;8.02;;;12.20;75.10;;;;;;5124825;27;20399;-39
2021/05/13 05:19:50;;;;;;;18.80;9.75;;;12.30;74.80;;;;;;5125997;27;20039;-40
2021/05/13 05:22:16;;;;;;;12.35;7.93;;;12.40;75.30;;;;;;5126126;27;20020;-39
2021/05/13 05:24:41;;;;;;;16.00;8.32;;;12.40;74.40;;;;;;5124823;27;20104;-39
2021/05/13 05:27:07;;;;;;;20.85;9.15;;;12.50;74.30;;;;;;5123774;27;20501;-40
2021/05/13 05:29:33;;;;;;;23.95;9.55;;;12.60;74.10;;;;;;5126673;27;20057;-40
2021/05/13 05:31:59;;;;;;;20.30;9.48;;;12.70;73.90;;;;;;5126292;27;20015;-39
2021/05/13 05:34:24;;;;;;;14.95;7.20;;;12.70;73.20;;;;;;5124879;27;20015;-40
2021/05/13 05:36:50;;;;;;;28.25;9.70;;;12.90;73.20;;;;;;5125348;27;20173;-40
2021/05/13 05:39:16;;;;;;;21.55;8.98;;;13.00;72.70;;;;;;5125989;27;20077;-40
2021/05/13 05:41:41;;;;;;;14.43;7.78;;;13.10;72.30;;;;;;5124062;28;20023;-41
2021/05/13 05:44:08;;;;;;;15.90;8.45;;;13.10;71.60;;;;;;5126049;28;20109;-40
2021/05/13 05:46:33;;;;;;;18.92;7.70;;;13.30;70.90;;;;;;5125825;28;20036;-40
2021/05/13 05:48:59;;;;;;;8.77;6.65;;;13.30;70.70;;;;;;5124487;28;20023;-40
2021/05/13 05:51:25;;;;;;;36.92;10.23;;;13.40;70.30;;;;;;5126717;28;20019;-40
2021/05/13 05:53:50;;;;;;;13.13;8.27;;;13.50;69.80;;;;;;5125082;28;20058;-39
2021/05/13 05:56:16;;;;;;;17.25;8.30;;;13.50;69.40;;;;;;5124592;28;20127;-40
2021/05/13 05:58:42;;;;;;;10.13;7.45;;;13.60;68.70;;;;;;5126239;28;20042;-41
2021/05/13 06:01:07;;;;;;;12.98;6.97;;;13.70;68.20;;;;;;5124626;28;20027;-40
2021/05/13 06:03:33;;;;;;;13.35;6.72;;;13.80;68.60;;;;;;5125336;28;20316;-40
2021/05/13 06:05:59;;;;;;;8.82;6.00;;;13.80;67.60;;;;;;5126403;28;20019;-39
2021/05/13 06:08:24;;;;;;;15.27;6.72;;;13.80;67.30;;;;;;5124895;28;20019;-39
2021/05/13 06:10:50;;;;;;;19.48;7.30;;;13.90;67.60;;;;;;5125488;28;20116;-40
2021/05/13 06:13:15;;;;;;;12.27;9.57;;;13.90;67.70;;;;;;5125974;28;20404;-40
2021/05/13 06:15:42;;;;;;;14.45;10.38;;;13.90;67.30;;;;;;5124423;28;20023;-40
2021/05/13 06:18:07;;;;;;;15.48;9.32;;;14.00;67.20;;;;;;5126298;28;20030;-40
2021/05/13 06:20:35;;;;;;;16.95;8.80;;;14.00;67.00;;;;;;5126029;27;20035;-40
2021/05/13 06:23:01;;;;;;;14.90;7.93;;;14.10;66.50;;;;;;5107608;27;20034;-40
2021/05/13 06:25:27;;;;;;;9.20;7.32;;;14.20;66.50;;;;;;5127617;27;20020;-40
2021/05/13 06:27:54;;;;;;;15.20;8.35;;;14.30;66.00;;;;;;5128879;27;20033;-40
2021/05/13 06:30:20;;;;;;;15.20;7.03;;;14.40;65.50;;;;;;5129891;27;20088;-40
2021/05/13 06:32:47;;;;;;;12.63;7.95;;;14.50;65.40;;;;;;5126606;27;20412;-40
2021/05/13 06:35:15;;;;;;;15.25;8.90;;;14.60;64.60;;;;;;5129101;27;20019;-40
2021/05/13 06:37:40;;;;;;;19.10;7.80;;;14.60;64.60;;;;;;5129499;27;20070;-41
2021/05/13 06:40:07;;;;;;;14.38;8.13;;;14.70;63.90;;;;;;5125863;27;20443;-40
2021/05/13 06:42:34;;;;;;;16.65;9.27;;;14.70;63.50;;;;;;5128659;27;20146;-39
2021/05/13 06:45:00;;;;;;;14.30;7.82;;;14.80;63.40;;;;;;5127524;27;20049;-40
2021/05/13 06:47:25;;;;;;;12.90;8.70;;;14.90;62.80;;;;;;5129055;27;20023;-40
2021/05/13 06:49:51;;;;;;;16.92;10.02;;;15.00;62.40;;;;;;5128296;27;20106;-40
2021/05/13 06:52:17;;;;;;;22.60;11.00;;;15.00;62.70;;;;;;5127152;27;20079;-40
2021/05/13 06:54:45;;;;;;;19.85;10.05;;;15.10;62.70;;;;;;5129238;27;20034;-40
2021/05/13 06:57:11;;;;;;;12.88;7.28;;;15.20;62.30;;;;;;5127399;27;20087;-40
2021/05/13 06:59:41;;;;;;;9.25;5.90;;;15.30;59.80;;;;;;5127646;27;20472;-40
2021/05/13 07:02:09;;;;;;;13.60;7.78;;;15.30;58.70;;;;;;5127016;27;20027;-40
2021/05/13 07:04:34;;;;;;;21.92;9.07;;;15.40;59.10;;;;;;5128115;27;20070;-40
2021/05/13 07:07:00;;;;;;;13.02;6.55;;;15.40;59.10;;;;;;5128789;27;20073;-40
2021/05/13 07:09:26;;;;;;;14.50;8.50;;;15.50;58.90;;;;;;5126916;27;20044;-40
2021/05/13 07:11:52;;;;;;;17.58;8.98;;;15.60;58.70;;;;;;5128264;27;20102;-40
2021/05/13 07:14:18;;;;;;;13.50;6.60;;;15.60;58.40;;;;;;5126793;27;20142;-40
2021/05/13 07:16:44;;;;;;;9.27;5.50;;;15.70;57.90;;;;;;5126875;27;20146;-40
2021/05/13 07:19:09;;;;;;;10.43;5.97;;;15.80;58.10;;;;;;5128209;27;20019;-41
2021/05/13 07:21:35;;;;;;;6.18;4.00;;;15.90;58.30;;;;;;5128033;27;20114;-40
2021/05/13 07:24:02;;;;;;;7.45;3.60;;;16.00;59.00;;;;;;5126289;27;21216;-41
2021/05/13 07:26:28;;;;;;;8.63;3.20;;;16.20;59.20;;;;;;5127134;27;20038;-40
2021/05/13 07:28:54;;;;;;;6.40;2.53;;;16.30;59.30;;;;;;5127305;27;20047;-40
2021/05/13 07:31:20;;;;;;;3.85;2.45;;;16.50;59.50;;;;;;5128182;27;20153;-40
2021/05/13 07:33:47;;;;;;;3.95;2.60;;;16.60;59.70;;;;;;5126435;27;20080;-41
2021/05/13 07:36:12;;;;;;;22.33;10.07;;;16.80;59.70;;;;;;5127795;27;20315;-41
2021/05/13 07:38:39;;;;;;;19.92;12.70;;;16.90;59.70;;;;;;5127476;27;20052;-41
2021/05/13 07:41:06;;;;;;;28.05;17.80;;;17.00;59.80;;;;;;5126568;27;20032;-41
2021/05/13 07:43:36;;;;;;;52.20;28.50;;;17.10;60.00;;;;;;5127564;27;20418;-40
2021/05/13 07:46:03;;;;;;;59.63;34.40;;;17.20;59.60;;;;;;5125882;27;20020;-41
2021/05/13 07:48:31;;;;;;;40.22;23.63;;;17.20;59.30;;;;;;5128013;27;20074;-41
2021/05/13 07:50:57;;;;;;;71.82;42.88;;;17.20;59.10;;;;;;5127342;27;20024;-41
2021/05/13 07:53:24;;;;;;;39.05;22.73;;;17.30;59.20;;;;;;5126247;27;20023;-41
2021/05/13 07:55:50;;;;;;;13.77;8.77;;;17.30;59.40;;;;;;5128046;27;20031;-41
2021/05/13 07:58:16;;;;;;;8.32;5.50;;;17.30;59.40;;;;;;5127029;27;20354;-42
2021/05/13 08:00:42;;;;;;;8.10;4.30;;;17.40;59.50;;;;;;5125901;27;20042;-41
2021/05/13 08:03:07;;;;;;;11.02;7.57;;;17.40;59.40;;;;;;5125187;27;20507;-42
2021/05/13 08:05:33;;;;;;;7.32;5.68;;;17.40;59.60;;;;;;5126886;27;20118;-40
2021/05/13 08:07:59;;;;;;;9.95;6.55;;;17.50;60.00;;;;;;5126075;27;20310;-40
2021/05/13 08:10:25;;;;;;;6.13;5.07;;;17.50;60.10;;;;;;5127839;27;20020;-41
2021/05/13 08:12:51;;;;;;;9.63;5.60;;;17.50;60.10;;;;;;5126042;27;20026;-40
2021/05/13 08:15:17;;;;;;;5.40;4.15;;;17.50;60.00;;;;;;5126071;27;20160;-41
2021/05/13 08:17:44;;;;;;;6.70;4.93;;;17.50;60.00;;;;;;5126608;27;20076;-41
2021/05/13 08:20:13;;;;;;;18.38;9.70;;;17.50;60.20;;;;;;5126084;27;20027;-41
2021/05/13 08:22:39;;;;;;;13.93;8.07;;;17.50;60.30;;;;;;5126731;27;20023;-41
2021/05/13 08:25:06;;;;;;;9.23;8.23;;;17.50;60.30;;;;;;5127832;27;20043;-41
2021/05/13 08:27:32;;;;;;;7.63;5.22;;;17.60;60.10;;;;;;5125246;27;20030;-41
2021/05/13 08:29:59;;;;;;;6.95;5.45;;;17.60;59.80;;;;;;5127609;27;20028;-41
2021/05/13 08:32:26;;;;;;;7.43;5.95;;;17.60;59.80;;;;;;5125274;27;20340;-40
2021/05/13 08:34:53;;;;;;;6.85;4.47;;;17.60;59.70;;;;;;5125245;27;20025;-41
2021/05/13 08:37:19;;;;;;;14.70;10.10;;;17.60;59.50;;;;;;5126692;27;20097;-42
2021/05/13 08:39:45;;;;;;;13.98;8.02;;;17.70;59.80;;;;;;5124684;27;20312;-41
2021/05/13 08:42:13;;;;;;;16.63;6.78;;;17.70;59.30;;;;;;5108262;27;20019;-41
2021/05/13 08:44:41;;;;;;;29.10;10.95;;;17.70;59.10;;;;;;5126134;27;20042;-41
2021/05/13 08:47:08;;;;;;;32.58;9.88;;;17.70;58.80;;;;;;5105970;27;20023;-41
2021/05/13 08:49:40;;;;;;;24.70;9.30;;;17.70;58.70;;;;;;5126574;27;20277;-41
2021/05/13 08:52:11;;;;;;;33.35;12.40;;;17.70;58.50;;;;;;5124794;27;20407;-41
2021/05/13 08:54:48;;;;;;;;;;;17.60;58.40;;;;;;5108119;28;20027;-40
2021/05/13 08:57:14;;;;;;;8.30;5.50;;;17.60;58.80;;;;;;5107407;27;19933;-41
2021/05/13 08:59:42;;;;;;;12.63;7.47;;;17.50;59.10;;;;;;5125852;27;20035;-40
2021/05/13 09:02:10;;;;;;;11.88;8.07;;;17.50;58.90;;;;;;5125147;27;20040;-41
2021/05/13 09:04:47;;;;;;;14.77;8.27;;;17.60;59.00;;;;;;5126164;27;20782;-41
2021/05/13 09:07:21;;;;;;;8.05;4.57;;;17.60;58.90;;;;;;5125314;27;20027;-40
2021/05/13 09:10:08;;;;;;;15.32;9.27;;;17.70;58.90;;;;;;5125510;27;20020;-40
2021/05/13 09:12:37;;;;;;;11.88;7.45;;;17.70;58.70;;;;;;5121224;27;20419;-41
2021/05/13 09:15:15;;;;;;;22.67;13.07;;;17.80;58.60;;;;;;5125764;27;20118;-41
2021/05/13 09:17:43;;;;;;;18.73;11.77;;;17.80;58.10;;;;;;5124835;27;20407;-41
2021/05/13 09:20:25;;;;;;;19.75;13.68;;;17.90;58.40;;;;;;5125037;27;20400;-41
2021/05/13 09:22:51;;;;;;;8.45;6.45;;;18.00;58.30;;;;;;5125337;27;20032;-41
2021/05/13 09:25:17;;;;;;;11.75;3.60;;;18.00;57.80;;;;;;5124557;27;20074;-41
2021/05/13 09:27:51;;;;;;;6.75;5.43;;;18.10;57.70;;;;;;5124186;27;20380;-41
2021/05/13 09:30:20;;;;;;;4.45;2.92;;;18.10;57.80;;;;;;5125476;27;20296;-45
2021/05/13 09:32:52;;;;;;;5.85;4.28;;;18.10;57.70;;;;;;5126271;27;20019;-41
2021/05/13 09:35:46;;;;;;;5.70;4.13;;;18.20;57.70;;;;;;5125823;28;20053;-41
2021/05/13 09:38:12;;;;;;;6.80;3.63;;;18.20;58.00;;;;;;5122441;27;20039;-41
2021/05/13 09:40:42;;;;;;;4.13;2.70;;;18.30;58.40;;;;;;5125820;27;20035;-41
2021/05/13 09:43:21;;;;;;;;;;;18.30;58.50;;;;;;5124740;28;20110;-41
2021/05/13 09:45:46;;;;;;;8.93;5.03;;;18.30;58.40;;;;;;5123604;28;19945;-41
2021/05/13 09:48:31;;;;;;;3.15;2.85;;;18.40;57.90;;;;;;5125477;28;20023;-41
2021/05/13 09:51:21;;;;;;;2.58;2.33;;;18.40;57.70;;;;;;5125542;28;20129;-41
2021/05/13 09:54:06;;;;;;;3.15;2.45;;;18.40;57.10;;;;;;5126162;28;20027;-41
2021/05/13 09:56:33;;;;;;;3.55;2.70;;;18.40;56.90;;;;;;5128603;27;20038;-41
2021/05/13 09:59:18;;;;;;;4.28;2.70;;;18.50;56.80;;;;;;5128750;27;20019;-41
2021/05/13 10:01:44;;;;;;;8.00;3.10;;;18.50;57.00;;;;;;5130271;27;20049;-41
2021/05/13 10:04:10;;;;;;;3.45;2.58;;;18.50;57.20;;;;;;5128290;27;20291;-41
2021/05/13 10:06:36;;;;;;;4.88;2.38;;;18.50;56.40;;;;;;5129196;27;20036;-40
2021/05/13 10:09:03;;;;;;;5.50;3.88;;;18.50;56.40;;;;;;5130093;27;20016;-41
2021/05/13 10:11:30;;;;;;;7.18;4.07;;;18.60;56.40;;;;;;5128012;27;20028;-41
2021/05/13 10:13:56;;;;;;;8.48;4.78;;;18.70;56.70;;;;;;5127798;27;20021;-41
2021/05/13 10:16:25;;;;;;;7.28;4.20;;;18.70;56.50;;;;;;5130153;27;20057;-41
2021/05/13 10:19:00;;;;;;;7.70;2.63;;;18.80;56.00;;;;;;5128098;27;20427;-41
2021/05/13 10:21:30;;;;;;;8.85;3.22;;;18.90;55.70;;;;;;5127664;27;20070;-41
2021/05/13 10:23:57;;;;;;;;;;;18.90;55.70;;;;;;5129125;27;20020;-41
2021/05/13 10:26:40;;;;;;;5.70;2.80;;;18.90;55.80;;;;;;5129214;27;19964;-41
2021/05/13 10:29:21;;;;;;;5.65;2.58;;;19.00;55.30;;;;;;5129346;27;20023;-41
2021/05/13 10:32:18;;;;;;;4.07;2.63;;;19.00;55.20;;;;;;5129404;27;20442;-41
2021/05/13 10:35:09;;;;;;;2.75;2.22;;;19.10;54.90;;;;;;5129543;27;20039;-41
2021/05/13 10:37:38;;;;;;;10.02;2.47;;;19.10;54.40;;;;;;5128192;27;20393;-41
2021/05/13 10:42:59;;;;;;;8.80;7.03;;;19.10;53.80;;;;;;5127610;27;20027;-41
2021/05/13 10:45:24;;;;;;;5.85;3.40;;;19.10;53.80;;;;;;5127231;27;20077;-41
2021/05/13 10:48:27;;;;;;;5.65;4.47;;;19.10;53.60;;;;;;5129196;27;20027;-41
2021/05/13 10:51:03;;;;;;;7.25;6.55;;;19.20;53.30;;;;;;5127974;27;20020;-40
2021/05/13 10:53:47;;;;;;;7.45;6.65;;;19.20;53.70;;;;;;5126190;27;20107;-42
2021/05/13 10:56:28;;;;;;;14.02;6.60;;;19.20;53.80;;;;;;5128036;27;20069;-41
2021/05/13 10:59:08;;;;;;;13.82;6.57;;;19.20;53.80;;;;;;5109457;27;20046;-41
2021/05/13 11:01:41;;;;;;;6.55;3.72;;;19.30;53.60;;;;;;5128195;27;20035;-41
2021/05/13 11:04:22;;;;;;;6.82;4.50;;;19.30;53.60;;;;;;5126804;27;20042;-41
2021/05/13 11:07:00;;;;;;;5.07;3.70;;;19.30;53.40;;;;;;5126366;27;20337;-41
2021/05/13 11:09:47;;;;;;;4.15;2.65;;;19.40;53.00;;;;;;5127184;27;20019;-41
2021/05/13 11:12:21;;;;;;;5.75;4.30;;;19.40;52.60;;;;;;5110835;27;20284;-41
2021/05/13 11:15:03;;;;;;;6.25;4.53;;;19.40;53.00;;;;;;5129263;27;20090;-41
2021/05/13 11:20:34;;;;;;;4.03;2.63;;;19.40;53.20;;;;;;5127702;27;20457;-41
2021/05/13 11:23:08;;;;;;;4.70;3.50;;;19.40;52.60;;;;;;5128359;27;20031;-41
2021/05/13 11:25:54;;;;;;;5.90;3.47;;;19.40;52.80;;;;;;5127336;27;20369;-41
2021/05/13 11:28:34;;;;;;;3.58;2.78;;;19.40;52.60;;;;;;5128209;27;20043;-41
2021/05/13 11:31:09;;;;;;;9.18;2.90;;;19.50;52.40;;;;;;5127467;27;20454;-41
2021/05/13 11:33:46;;;;;;;6.25;4.30;;;19.60;52.30;;;;;;5127744;27;20344;-41
2021/05/13 11:36:20;;;;;;;4.22;3.30;;;19.60;52.10;;;;;;5127291;27;20035;-41
2021/05/13 11:38:54;;;;;;;2.70;2.50;;;19.60;51.70;;;;;;5126891;27;20127;-41
2021/05/13 11:41:21;;;;;;;4.47;3.30;;;19.70;51.70;;;;;;5127589;27;20102;-41
2021/05/13 11:43:47;;;;;;;4.78;2.30;;;19.70;51.70;;;;;;5128717;27;20106;-41
2021/05/13 11:46:17;;;;;;;4.32;2.30;;;19.70;51.70;;;;;;5127141;27;20036;-43
2021/05/13 11:48:48;;;;;;;3.10;2.42;;;19.70;51.60;;;;;;5127351;27;20023;-41
2021/05/13 11:51:18;;;;;;;3.28;2.25;;;19.70;51.90;;;;;;5127267;27;20028;-41
2021/05/13 11:53:46;;;;;;;4.97;2.67;;;19.80;52.50;;;;;;5126699;27;20047;-41
2021/05/13 11:56:13;;;;;;;4.00;3.05;;;19.80;52.50;;;;;;5125664;27;20035;-41
2021/05/13 11:58:49;;;;;;;3.55;2.70;;;19.80;52.70;;;;;;5127107;27;20076;-41
2021/05/13 12:01:20;;;;;;;5.78;3.22;;;19.70;52.50;;;;;;5127187;27;20019;-41
2021/05/13 12:03:46;;;;;;;;;;;19.70;52.40;;;;;;5127001;27;20110;-41
2021/05/13 12:06:12;;;;;;;4.70;2.88;;;19.70;52.60;;;;;;5109475;27;20003;-41
2021/05/13 12:08:38;;;;;;;4.45;2.72;;;19.70;52.10;;;;;;5127605;27;20365;-43
2021/05/13 12:11:28;;;;;;;7.47;2.50;;;19.70;51.70;;;;;;5126487;27;20061;-41
2021/05/13 12:13:55;;;;;;;2.73;2.10;;;19.60;51.40;;;;;;5126658;27;20058;-41
2021/05/13 12:16:24;;;;;;;7.15;2.70;;;19.60;51.70;;;;;;5108300;27;20263;-41
2021/05/13 12:18:53;;;;;;;6.90;3.00;;;19.50;51.80;;;;;;5127281;27;20015;-41
2021/05/13 12:21:19;;;;;;;2.63;2.15;;;19.50;51.60;;;;;;5127352;27;20407;-41
2021/05/13 12:23:47;;;;;;;6.05;2.47;;;19.40;51.40;;;;;;5125729;27;20106;-41
2021/05/13 12:26:20;;;;;;;4.22;3.60;;;19.40;51.30;;;;;;5126280;27;20024;-42
2021/05/13 12:28:46;;;;;;;19.52;5.90;;;19.30;51.30;;;;;;5125498;27;20023;-41
2021/05/13 12:31:27;;;;;;;4.82;4.03;;;19.30;51.40;;;;;;5127515;27;20096;-41
2021/05/13 12:33:53;;;;;;;2.50;2.05;;;19.20;51.40;;;;;;5126210;27;20020;-40
2021/05/13 12:36:19;;;;;;;5.85;4.20;;;19.10;51.80;;;;;;5125763;27;20069;-41
2021/05/13 12:38:45;;;;;;;4.82;3.63;;;19.10;52.20;;;;;;5127370;27;20062;-41
2021/05/13 12:41:16;;;;;;;2.58;2.38;;;19.00;52.40;;;;;;5125466;27;20024;-41
2021/05/13 12:43:45;;;;;;;;;;;19.00;52.60;;;;;;5126513;27;20061;-41
2021/05/13 12:46:22;;;;;;;2.80;2.40;;;18.90;52.70;;;;;;5125590;27;19923;-41
2021/05/13 12:48:49;;;;;;;6.28;2.60;;;18.90;53.00;;;;;;5128163;27;20371;-41
2021/05/13 12:51:18;;;;;;;5.07;2.47;;;18.90;53.10;;;;;;5125286;27;20031;-41
2021/05/13 12:53:57;;;;;;;4.80;3.05;;;18.80;52.90;;;;;;5125367;27;20035;-41